Time;durP1;ratioP1;P1;durP2;ratioP2;P2;SDS_P1;SDS_P2;PMS_P1;PMS_P2;Temp;Humidity;BMP_temperature;BMP_pressure;BME280_temperature;BME280_humidity;BME280_pressure;Samples;Min_cycle;Max_cycle;Signal;HPM_P1;HPM_P2
2023/05/25 00:00:26;;;;;;;9.20;6.20;;;;;;;8.42;87.99;101242.08;105622;1256;69212;-61
2023/05/25 00:03:29;;;;;;;9.20;5.50;;;;;;;8.36;87.96;101245.11;105520;1253;75394;-61
2023/05/25 00:06:11;;;;;;;9.00;5.30;;;;;;;8.30;88.07;101246.94;105543;1256;82637;-61
2023/05/25 00:08:56;;;;;;;;;;;;;;;8.28;88.50;101246.78;105547;1253;73647;-61
2023/05/25 00:11:33;;;;;;;9.90;5.30;;;;;;;8.28;88.61;101249.05;105580;1256;69154;-63
2023/05/25 00:14:25;;;;;;;8.70;6.20;;;;;;;8.22;88.25;101245.64;105599;1254;69268;-65
2023/05/25 00:17:04;;;;;;;13.00;5.90;;;;;;;8.19;88.89;101241.16;105584;1254;74166;-63
2023/05/25 00:19:43;;;;;;;8.70;5.70;;;;;;;8.20;88.79;101242.71;105561;1256;83397;-60
2023/05/25 00:22:27;;;;;;;9.40;6.00;;;;;;;8.16;88.55;101243.64;105594;1254;72815;-60
2023/05/25 00:25:10;;;;;;;11.10;6.40;;;;;;;8.12;88.54;101244.23;105535;1255;69293;-64
2023/05/25 00:28:05;;;;;;;11.70;6.40;;;;;;;8.08;88.65;101243.05;105559;1254;69180;-61
2023/05/25 00:30:44;;;;;;;9.80;5.60;;;;;;;8.03;88.58;101244.86;105552;1259;73737;-63
2023/05/25 00:33:31;;;;;;;9.20;6.30;;;;;;;7.99;88.68;101245.45;105540;1256;83329;-62
2023/05/25 00:36:09;;;;;;;9.70;5.90;;;;;;;7.94;88.49;101243.58;105513;1259;74639;-66
2023/05/25 00:38:59;;;;;;;10.70;5.70;;;;;;;7.90;88.29;101246.07;105487;1257;69132;-62
2023/05/25 00:41:35;;;;;;;9.20;5.00;;;;;;;7.84;88.26;101248.94;105598;1254;69189;-62
2023/05/25 00:44:24;;;;;;;8.60;5.60;;;;;;;7.78;88.33;101254.73;105554;1254;73892;-63
2023/05/25 00:47:10;;;;;;;8.80;5.40;;;;;;;7.74;88.29;101256.69;105506;1256;83187;-62
2023/05/25 00:50:04;;;;;;;9.20;5.50;;;;;;;7.68;88.40;101253.80;105499;1257;73686;-61
2023/05/25 00:52:58;;;;;;;;;;;;;;;;;;;;;
2023/05/25 00:55:37;;;;;;;9.80;5.50;;;;;;;7.57;88.45;101258.96;105435;1259;69130;-63
2023/05/25 00:58:18;;;;;;;12.60;5.90;;;;;;;7.55;88.81;101254.30;105535;1256;73201;-61
2023/05/25 01:00:58;;;;;;;9.30;6.30;;;;;;;7.54;89.02;101251.36;105491;1256;83509;-63
2023/05/25 01:03:44;;;;;;;11.00;6.10;;;;;;;7.49;88.88;101251.08;105465;1254;73803;-63
2023/05/25 01:06:35;;;;;;;8.60;5.50;;;;;;;7.45;89.06;101248.67;105575;1254;69102;-63
2023/05/25 01:09:26;;;;;;;9.10;6.10;;;;;;;7.42;88.89;101250.44;105595;1253;69182;-63
2023/05/25 01:12:04;;;;;;;11.80;7.60;;;;;;;7.39;88.94;101255.86;105526;1257;74300;-60
2023/05/25 01:14:47;;;;;;;11.10;6.20;;;;;;;7.38;89.30;101256.39;105579;1254;83431;-63
2023/05/25 01:17:28;;;;;;;;;;;;;;;7.36;88.67;101258.67;105333;1257;73673;-64
2023/05/25 01:20:17;;;;;;;10.10;6.70;;;;;;;7.31;88.96;101257.16;105529;1259;69294;-61
2023/05/25 01:23:16;;;;;;;8.80;5.90;;;;;;;7.28;89.18;101259.09;105509;1256;69297;-63
2023/05/25 01:26:01;;;;;;;8.90;5.80;;;;;;;7.25;89.13;101258.78;105521;1255;73158;-62
2023/05/25 01:28:50;;;;;;;10.60;6.80;;;;;;;7.22;89.21;101257.95;105511;1256;83639;-61
2023/05/25 01:31:38;;;;;;;9.20;6.60;;;;;;;7.19;89.35;101265.11;105499;1257;73911;-63
2023/05/25 01:34:30;;;;;;;11.40;6.30;;;;;;;7.17;89.30;101271.89;105449;1254;69165;-62
2023/05/25 01:37:16;;;;;;;9.90;6.20;;;;;;;7.14;89.15;101271.74;105522;1256;69297;-62
2023/05/25 01:40:00;;;;;;;10.00;6.00;;;;;;;7.13;89.59;101272.45;105539;1254;73998;-61
2023/05/25 01:42:45;;;;;;;11.80;6.00;;;;;;;7.12;89.52;101269.33;105500;1256;83406;-61
2023/05/25 01:45:37;;;;;;;11.50;6.40;;;;;;;7.11;89.71;101271.07;105522;1254;73274;-62
2023/05/25 01:48:42;;;;;;;11.20;6.90;;;;;;;7.13;90.10;101268.11;105572;1254;69198;-63
2023/05/25 01:52:15;;;;;;;9.50;6.20;;;;;;;7.17;90.46;101265.47;105031;1259;69084;-64
2023/05/25 01:55:05;;;;;;;11.50;6.50;;;;;;;7.15;90.03;101272.27;104680;1269;73782;-61
2023/05/25 01:58:01;;;;;;;10.70;5.80;;;;;;;7.13;90.05;101277.84;104653;1267;82737;-62
2023/05/25 02:00:48;;;;;;;11.30;6.20;;;;;;;7.13;90.33;101276.45;104626;1266;72678;-63
2023/05/25 02:03:39;;;;;;;12.70;6.50;;;;;;;7.13;90.19;101276.44;104697;1267;69224;-61
2023/05/25 02:06:30;;;;;;;14.20;6.80;;;;;;;7.13;90.57;101278.20;104598;1269;69243;-61
2023/05/25 02:09:17;;;;;;;11.10;6.20;;;;;;;7.17;90.91;101268.41;104684;1266;73789;-63
2023/05/25 02:12:09;;;;;;;10.00;5.90;;;;;;;7.20;90.77;101268.55;104696;1264;83581;-60
2023/05/25 02:15:10;;;;;;;10.40;6.80;;;;;;;7.19;90.54;101268.58;104687;1268;75812;-62
2023/05/25 02:18:04;;;;;;;12.30;7.30;;;;;;;7.20;91.09;101269.42;104657;1271;69413;-62
2023/05/25 02:20:52;;;;;;;8.70;6.60;;;;;;;7.27;91.50;101267.11;104704;1264;69318;-60
2023/05/25 02:23:32;;;;;;;10.60;7.00;;;;;;;7.33;91.52;101267.57;104528;1266;74592;-62
2023/05/25 02:26:15;;;;;;;10.80;6.70;;;;;;;7.42;92.25;101264.86;104551;1268;82552;-62
2023/05/25 02:28:58;;;;;;;13.80;6.90;;;;;;;7.50;92.09;101264.10;104837;1265;74027;-63
2023/05/25 02:31:42;;;;;;;11.60;6.70;;;;;;;7.58;92.68;101267.67;105189;1262;69211;-64
2023/05/25 02:34:21;;;;;;;;;;;;;;;7.65;92.63;101265.50;105526;1254;69190;-61
2023/05/25 02:37:03;;;;;;;14.20;7.40;;;;;;;7.73;92.94;101266.10;105533;1256;73779;-61
2023/05/25 02:39:52;;;;;;;13.40;6.80;;;;;;;7.82;93.05;101269.31;105471;1254;82595;-62
2023/05/25 02:42:34;;;;;;;13.00;6.50;;;;;;;7.94;93.15;101269.85;105521;1256;74128;-62
2023/05/25 02:45:17;;;;;;;10.60;6.90;;;;;;;8.05;93.17;101270.08;105486;1256;69181;-63
2023/05/25 02:47:53;;;;;;;11.60;6.90;;;;;;;8.14;92.86;101265.60;105596;1256;69195;-61
2023/05/25 02:50:34;;;;;;;12.50;6.50;;;;;;;8.24;92.88;101266.16;105464;1254;74240;-63
2023/05/25 02:53:17;;;;;;;11.50;6.30;;;;;;;8.34;93.14;101267.41;105528;1256;82314;-64
2023/05/25 02:55:52;;;;;;;13.10;7.30;;;;;;;8.42;92.96;101269.42;105563;1254;73856;-62
2023/05/25 02:58:27;;;;;;;11.20;6.40;;;;;;;8.49;92.73;101268.29;105522;1255;69062;-61
2023/05/25 03:01:30;;;;;;;11.70;7.00;;;;;;;8.56;92.33;101268.89;105388;1257;69234;-63
2023/05/25 03:04:20;;;;;;;;;;;;;;;;;;;;;
2023/05/25 03:06:52;;;;;;;10.40;6.10;;;;;;;8.65;91.92;101273.27;105552;1256;83703;-62
2023/05/25 03:09:32;;;;;;;12.20;7.10;;;;;;;8.68;92.03;101279.84;105445;1254;73745;-61
2023/05/25 03:12:11;;;;;;;16.80;6.70;;;;;;;8.73;91.82;101272.63;105519;1259;69288;-63
2023/05/25 03:14:53;;;;;;;;;;;;;;;8.78;91.67;101273.08;105593;1257;69087;-62
2023/05/25 03:17:31;;;;;;;11.10;6.00;;;;;;;8.82;91.76;101273.20;105534;1257;73047;-64
2023/05/25 03:20:06;;;;;;;11.30;6.90;;;;;;;8.86;91.56;101274.34;105512;1256;83324;-63
2023/05/25 03:22:42;;;;;;;11.40;6.50;;;;;;;8.90;91.73;101271.84;105534;1257;72843;-64
2023/05/25 03:25:14;;;;;;;10.70;6.20;;;;;;;8.95;91.72;101271.41;105531;1256;69202;-65
2023/05/25 03:27:53;;;;;;;11.40;6.50;;;;;;;8.99;91.73;101269.78;105518;1254;69170;-61
2023/05/25 03:30:29;;;;;;;11.40;6.30;;;;;;;9.04;91.67;101276.30;105585;1257;74191;-60
2023/05/25 03:33:03;;;;;;;11.00;6.40;;;;;;;9.09;91.35;101280.60;105504;1257;83271;-64
2023/05/25 03:35:41;;;;;;;10.80;6.30;;;;;;;9.14;91.26;101286.08;105491;1254;72191;-62
2023/05/25 03:38:16;;;;;;;15.00;7.30;;;;;;;9.21;91.55;101289.98;105466;1260;69317;-63
2023/05/25 03:40:53;;;;;;;10.20;6.30;;;;;;;9.28;91.64;101290.90;105544;1256;69241;-62
2023/05/25 03:43:32;;;;;;;11.40;6.40;;;;;;;9.32;91.70;101291.36;105510;1254;73147;-61
2023/05/25 03:46:06;;;;;;;9.20;5.20;;;;;;;9.33;91.52;101297.09;105547;1257;82939;-63
2023/05/25 03:48:49;;;;;;;9.60;5.40;;;;;;;9.34;91.63;101306.34;105557;1253;73872;-61
2023/05/25 03:51:23;;;;;;;10.20;4.90;;;;;;;9.35;91.58;101308.55;105477;1255;69127;-63
2023/05/25 03:53:54;;;;;;;6.90;4.50;;;;;;;9.37;91.59;101311.14;105469;1254;69128;-61
2023/05/25 03:56:26;;;;;;;9.20;5.10;;;;;;;9.39;91.59;101316.52;105513;1255;74179;-63
2023/05/25 03:59:02;;;;;;;8.10;5.00;;;;;;;9.40;91.60;101318.09;105511;1257;83365;-60
2023/05/25 04:01:36;;;;;;;8.30;4.60;;;;;;;9.40;91.30;101315.30;105495;1259;72842;-65
2023/05/25 04:04:11;;;;;;;8.50;4.80;;;;;;;9.42;91.38;101315.08;105625;1257;69135;-62
2023/05/25 04:06:47;;;;;;;7.00;4.90;;;;;;;9.44;91.49;101315.20;105505;1256;69198;-62
2023/05/25 04:09:31;;;;;;;5.60;4.10;;;;;;;9.45;91.20;101314.86;105475;1257;74236;-62
2023/05/25 04:12:09;;;;;;;7.50;4.20;;;;;;;9.46;91.40;101316.57;105540;1257;83434;-60
2023/05/25 04:14:44;;;;;;;5.50;4.10;;;;;;;9.45;91.16;101314.34;105548;1254;73421;-62
2023/05/25 04:17:17;;;;;;;7.20;4.50;;;;;;;9.43;91.00;101312.27;105529;1256;69186;-63
2023/05/25 04:19:49;;;;;;;6.20;4.80;;;;;;;9.42;91.09;101314.73;105628;1257;69147;-60
2023/05/25 04:22:23;;;;;;;4.60;4.10;;;;;;;9.40;90.94;101318.26;105707;1254;73059;-60
2023/05/25 04:24:52;;;;;;;5.30;4.00;;;;;;;9.37;90.86;101324.05;105694;1255;82843;-60
2023/05/25 04:27:22;;;;;;;5.30;4.50;;;;;;;9.36;90.85;101326.52;105622;1257;72418;-60
2023/05/25 04:29:53;;;;;;;6.30;4.10;;;;;;;9.33;90.69;101329.52;105519;1254;69112;-60
2023/05/25 04:32:45;;;;;;;8.40;4.60;;;;;;;9.31;90.79;101327.30;105570;1252;69181;-61
2023/05/25 04:35:30;;;;;;;6.20;3.90;;;;;;;9.30;90.98;101327.14;105672;1256;73799;-61
2023/05/25 04:38:01;;;;;;;5.70;3.80;;;;;;;9.32;91.07;101326.25;105625;1260;84317;-60
2023/05/25 04:40:32;;;;;;;6.90;4.10;;;;;;;9.34;91.16;101330.21;105684;1257;73861;-60
2023/05/25 04:43:02;;;;;;;4.80;3.90;;;;;;;9.36;91.35;101328.96;105598;1254;69268;-61
2023/05/25 04:45:32;;;;;;;7.30;4.70;;;;;;;9.36;91.21;101330.34;105724;1254;68997;-60
2023/05/25 04:48:02;;;;;;;7.40;4.20;;;;;;;9.37;91.45;101333.99;105639;1257;74219;-60
2023/05/25 04:50:33;;;;;;;6.50;4.50;;;;;;;9.42;91.69;101335.86;105819;1257;82289;-60
2023/05/25 04:53:02;;;;;;;6.80;4.90;;;;;;;9.47;91.63;101333.31;105657;1257;73488;-59
2023/05/25 04:55:44;;;;;;;6.80;4.80;;;;;;;9.49;91.65;101334.31;105742;1256;69081;-60
2023/05/25 04:58:17;;;;;;;6.30;4.70;;;;;;;9.51;91.48;101334.64;105597;1257;69167;-61
2023/05/25 05:00:46;;;;;;;8.20;4.70;;;;;;;9.55;91.70;101336.30;105624;1255;73844;-62
2023/05/25 05:03:15;;;;;;;8.90;4.90;;;;;;;9.61;91.89;101334.45;105663;1266;83352;-59
2023/05/25 05:05:47;;;;;;;9.00;5.20;;;;;;;9.67;91.68;101332.26;105649;1257;72752;-60
2023/05/25 05:08:24;;;;;;;9.20;5.40;;;;;;;9.74;91.88;101333.52;105551;1256;69845;-60
2023/05/25 05:10:53;;;;;;;8.50;5.60;;;;;;;9.80;91.86;101335.50;105525;1257;69084;-60
2023/05/25 05:13:23;;;;;;;6.80;4.90;;;;;;;9.87;91.75;101336.25;105663;1260;73025;-61
2023/05/25 05:15:55;;;;;;;7.50;5.10;;;;;;;9.94;91.83;101333.83;105715;1257;83754;-55
2023/05/25 05:18:24;;;;;;;8.80;5.60;;;;;;;9.99;91.81;101333.04;105601;1257;73851;-59
2023/05/25 05:20:56;;;;;;;8.40;4.80;;;;;;;10.05;91.58;101331.54;105648;1256;69749;-59
2023/05/25 05:23:26;;;;;;;9.00;5.90;;;;;;;10.12;91.96;101330.34;105600;1259;69065;-58
2023/05/25 05:25:55;;;;;;;6.40;4.90;;;;;;;10.19;91.72;101330.37;105725;1256;72817;-58
2023/05/25 05:28:26;;;;;;;9.10;5.20;;;;;;;10.28;92.18;101329.16;105762;1260;82510;-58
2023/05/25 05:30:54;;;;;;;;;;;;;;;10.37;92.16;101330.20;105472;1259;73770;-58
2023/05/25 05:33:25;;;;;;;9.90;6.20;;;;;;;10.46;92.29;101333.33;105603;1252;69194;-58
2023/05/25 05:35:54;;;;;;;9.60;5.50;;;;;;;10.56;91.97;101330.48;105659;1256;69084;-59
2023/05/25 05:38:24;;;;;;;9.00;5.50;;;;;;;10.64;92.00;101331.35;105717;1257;74223;-60
2023/05/25 05:40:53;;;;;;;10.10;5.70;;;;;;;10.73;91.88;101333.95;105623;1258;82893;-60
2023/05/25 05:43:23;;;;;;;10.10;5.70;;;;;;;10.83;91.87;101334.95;105630;1256;72857;-60
2023/05/25 05:45:53;;;;;;;8.10;5.50;;;;;;;10.93;91.85;101335.40;105726;1259;68117;-60
2023/05/25 05:48:22;;;;;;;11.00;6.50;;;;;;;11.06;91.83;101337.21;105602;1253;69053;-61
2023/05/25 05:50:51;;;;;;;9.20;6.20;;;;;;;11.20;91.92;101335.30;105593;1256;74126;-60
2023/05/25 05:53:20;;;;;;;;;;;;;;;11.34;91.77;101331.80;105661;1257;83285;-60
2023/05/25 05:55:52;;;;;;;8.70;5.90;;;;;;;11.46;91.37;101335.68;105348;1256;248248;-60
2023/05/25 05:58:28;;;;;;;12.00;6.60;;;;;;;11.56;91.04;101331.92;105566;1260;69227;-60
2023/05/25 06:00:58;;;;;;;11.60;7.20;;;;;;;11.64;90.93;101334.52;105678;1260;69216;-60
2023/05/25 06:03:27;;;;;;;16.30;7.40;;;;;;;11.73;90.58;101335.31;105524;1257;74168;-60
2023/05/25 06:05:56;;;;;;;11.30;6.50;;;;;;;11.81;90.29;101334.23;105624;1257;83310;-60
2023/05/25 06:08:26;;;;;;;11.00;6.20;;;;;;;11.92;90.31;101333.63;105658;1257;72758;-59
2023/05/25 06:10:54;;;;;;;9.70;6.30;;;;;;;12.05;90.28;101332.55;105698;1257;69141;-60
2023/05/25 06:13:24;;;;;;;10.00;6.20;;;;;;;12.12;89.73;101334.97;105712;1255;69106;-60
2023/05/25 06:15:52;;;;;;;14.50;7.10;;;;;;;12.21;89.65;101335.08;105563;1257;73215;-60
2023/05/25 06:18:23;;;;;;;13.40;6.30;;;;;;;12.32;89.69;101335.27;105485;1254;84277;-60
2023/05/25 06:20:52;;;;;;;12.90;7.20;;;;;;;12.45;89.58;101333.49;105682;1256;73881;-61
2023/05/25 06:23:20;;;;;;;9.90;6.40;;;;;;;12.57;89.26;101334.88;105526;1255;69199;-59
2023/05/25 06:25:51;;;;;;;10.30;6.50;;;;;;;12.66;88.87;101336.02;105566;1256;69201;-61
2023/05/25 06:28:19;;;;;;;11.70;6.60;;;;;;;12.75;88.90;101341.70;105694;1257;71952;-60
2023/05/25 06:30:49;;;;;;;10.50;6.00;;;;;;;12.84;88.79;101344.41;105776;1257;85248;-60
2023/05/25 06:33:17;;;;;;;12.70;6.10;;;;;;;12.90;88.58;101341.73;105821;1256;73685;-61
2023/05/25 06:35:46;;;;;;;12.90;6.90;;;;;;;13.01;88.40;101338.27;105409;1255;69130;-61
2023/05/25 06:38:15;;;;;;;12.50;7.00;;;;;;;13.16;88.53;101337.56;105437;1263;69224;-61
2023/05/25 06:40:43;;;;;;;12.30;6.70;;;;;;;13.27;87.85;101337.25;105558;1254;74124;-60
2023/05/25 06:43:12;;;;;;;11.20;6.40;;;;;;;13.33;87.70;101334.06;105528;1258;83915;-57
2023/05/25 06:46:08;;;;;;;11.60;6.60;;;;;;;13.44;87.39;101330.55;105298;1256;74421;-58
2023/05/25 06:48:38;;;;;;;15.40;7.40;;;;;;;13.54;87.35;101333.54;105733;1259;69097;-57
2023/05/25 06:51:06;;;;;;;8.80;6.10;;;;;;;13.68;87.68;101329.02;105496;1254;69198;-58
2023/05/25 06:53:35;;;;;;;10.40;5.90;;;;;;;13.86;87.70;101329.61;105595;1254;73781;-59
2023/05/25 06:56:03;;;;;;;9.40;6.00;;;;;;;14.02;87.37;101332.71;105496;1257;83575;-59
2023/05/25 06:58:32;;;;;;;13.40;6.50;;;;;;;14.16;87.02;101335.89;105561;1257;72723;-58
2023/05/25 07:01:00;;;;;;;13.40;5.90;;;;;;;14.24;86.77;101342.09;105678;1255;69096;-62
2023/05/25 07:03:29;;;;;;;11.80;6.10;;;;;;;14.39;86.84;101338.72;105614;1254;69081;-61
2023/05/25 07:05:57;;;;;;;14.50;6.60;;;;;;;14.51;86.46;101342.66;105486;1257;73185;-61
2023/05/25 07:08:25;;;;;;;12.10;6.40;;;;;;;14.62;86.25;101343.30;105490;1255;81381;-61
2023/05/25 07:10:54;;;;;;;9.40;6.10;;;;;;;14.71;85.84;101341.02;105602;1257;73737;-61
2023/05/25 07:13:23;;;;;;;11.90;6.60;;;;;;;14.77;85.40;101337.83;105585;1256;69240;-62
2023/05/25 07:15:51;;;;;;;9.10;6.10;;;;;;;14.84;85.72;101339.84;105591;1254;69689;-61
2023/05/25 07:18:20;;;;;;;11.90;6.90;;;;;;;15.01;86.12;101344.76;105612;1253;74009;-61
2023/05/25 07:20:48;;;;;;;10.80;6.40;;;;;;;15.16;85.86;101341.71;105504;1256;82398;-63
2023/05/25 07:23:16;;;;;;;10.60;6.00;;;;;;;15.25;85.45;101346.61;105494;1257;73038;-61
2023/05/25 07:25:45;;;;;;;10.80;4.80;;;;;;;15.29;84.86;101346.96;105512;1256;69203;-62
2023/05/25 07:28:14;;;;;;;8.90;4.80;;;;;;;15.38;84.25;101354.36;105579;1257;69190;-63
2023/05/25 07:30:43;;;;;;;10.10;4.80;;;;;;;15.46;83.79;101356.67;105605;1255;74076;-63
2023/05/25 07:33:11;;;;;;;9.40;4.80;;;;;;;15.52;83.40;101358.16;105509;1252;82526;-61
2023/05/25 07:35:40;;;;;;;8.30;4.60;;;;;;;15.56;82.81;101357.27;105582;1256;73780;-63
2023/05/25 07:38:09;;;;;;;9.00;4.60;;;;;;;15.59;82.61;101358.55;105552;1257;69075;-64
2023/05/25 07:40:37;;;;;;;7.80;4.00;;;;;;;15.64;82.34;101358.89;105614;1255;69223;-61
2023/05/25 07:43:06;;;;;;;7.60;4.20;;;;;;;15.67;81.78;101360.52;105522;1256;74484;-60
2023/05/25 07:45:35;;;;;;;10.30;4.30;;;;;;;15.73;81.33;101359.23;105556;1256;83636;-59
2023/05/25 07:48:05;;;;;;;9.40;4.40;;;;;;;15.81;80.97;101361.17;105506;1256;72314;-63
2023/05/25 07:50:34;;;;;;;7.40;4.30;;;;;;;15.92;80.81;101364.41;105520;1257;69022;-63
2023/05/25 07:53:03;;;;;;;17.00;4.90;;;;;;;16.04;80.54;101366.49;105589;1252;69217;-61
2023/05/25 07:55:31;;;;;;;8.20;4.50;;;;;;;16.12;79.81;101371.81;105539;1255;74100;-62
2023/05/25 07:58:00;;;;;;;7.40;4.30;;;;;;;16.17;79.30;101370.00;105488;1257;83537;-63
2023/05/25 08:00:28;;;;;;;9.50;4.50;;;;;;;16.22;78.99;101374.17;105595;1254;72864;-61
2023/05/25 08:02:57;;;;;;;11.60;4.50;;;;;;;16.34;78.97;101376.08;105593;1256;69170;-61
2023/05/25 08:05:26;;;;;;;8.80;4.20;;;;;;;16.48;78.66;101372.44;105541;1257;69195;-64
2023/05/25 08:07:55;;;;;;;8.70;4.50;;;;;;;16.63;78.40;101372.12;105559;1257;74268;-60
2023/05/25 08:10:30;;;;;;;9.10;4.20;;;;;;;16.75;77.99;101366.42;105563;1254;82646;-63
2023/05/25 08:12:58;;;;;;;8.30;4.60;;;;;;;16.89;77.28;101370.38;105576;1257;73973;-60
2023/05/25 08:15:27;;;;;;;6.30;3.70;;;;;;;16.97;77.06;101373.55;105496;1257;69200;-61
2023/05/25 08:17:55;;;;;;;8.20;4.30;;;;;;;17.10;76.88;101367.59;105556;1255;69100;-64
2023/05/25 08:20:24;;;;;;;8.20;4.00;;;;;;;17.22;76.62;101365.60;105637;1254;73742;-60
2023/05/25 08:22:53;;;;;;;12.10;4.50;;;;;;;17.25;76.34;101368.10;105593;1254;83431;-61
2023/05/25 08:25:21;;;;;;;10.50;4.90;;;;;;;17.24;75.75;101358.63;105590;1254;74114;-63
2023/05/25 08:27:50;;;;;;;7.60;4.20;;;;;;;17.13;75.22;101354.56;105515;1256;69221;-61
2023/05/25 08:30:18;;;;;;;8.10;4.80;;;;;;;17.05;75.18;101352.83;105554;1257;69153;-61
2023/05/25 08:32:47;;;;;;;9.90;4.60;;;;;;;16.93;74.68;101355.90;105573;1254;73903;-63
2023/05/25 08:35:16;;;;;;;10.40;4.70;;;;;;;16.81;74.72;101355.23;105486;1257;83385;-61
2023/05/25 08:37:45;;;;;;;9.80;4.90;;;;;;;16.75;74.61;101352.33;105597;1254;72830;-64
2023/05/25 08:40:15;;;;;;;8.80;4.80;;;;;;;16.68;74.39;101348.55;105597;1257;69185;-61
2023/05/25 08:42:45;;;;;;;9.30;5.10;;;;;;;16.72;74.77;101347.14;105594;1257;69142;-62
2023/05/25 08:45:14;;;;;;;8.40;4.40;;;;;;;16.77;74.60;101347.45;105555;1257;73107;-63
2023/05/25 08:48:00;;;;;;;9.90;5.30;;;;;;;16.96;74.98;101349.59;105587;1255;83387;-62
2023/05/25 08:50:29;;;;;;;10.60;5.10;;;;;;;17.11;74.64;101348.10;105513;1254;73895;-61
2023/05/25 08:53:00;;;;;;;9.00;5.10;;;;;;;17.27;74.68;101349.64;105562;1254;69102;-60
2023/05/25 08:55:31;;;;;;;9.70;5.30;;;;;;;17.39;74.45;101354.33;105684;1254;69231;-59
2023/05/25 08:58:10;;;;;;;12.30;5.10;;;;;;;17.40;74.09;101356.73;105565;1256;73630;-60
2023/05/25 09:00:42;;;;;;;12.70;4.80;;;;;;;17.45;73.80;101354.94;105475;1254;82576;-60
2023/05/25 09:03:16;;;;;;;9.60;5.30;;;;;;;17.55;73.69;101358.64;105547;1254;73754;-60
2023/05/25 09:05:46;;;;;;;12.50;4.90;;;;;;;17.71;73.42;101355.54;105523;1257;69525;-61
2023/05/25 09:08:16;;;;;;;9.40;4.70;;;;;;;17.82;73.03;101354.81;105572;1257;69298;-60
2023/05/25 09:10:44;;;;;;;;;;;;;;;17.95;73.03;101352.55;105635;1254;74948;-60
2023/05/25 09:13:13;;;;;;;10.30;5.70;;;;;;;18.03;72.60;101354.92;105639;1257;83299;-66
2023/05/25 09:15:50;;;;;;;8.80;4.40;;;;;;;18.07;72.22;101356.33;105520;1253;72657;-60
2023/05/25 09:18:20;;;;;;;9.50;5.20;;;;;;;18.08;71.98;101360.36;105603;1252;69218;-60
2023/05/25 09:20:48;;;;;;;8.50;4.30;;;;;;;18.06;71.43;101363.28;105620;1256;69185;-61
2023/05/25 09:23:17;;;;;;;12.20;4.90;;;;;;;18.00;71.04;101360.75;105545;1257;74036;-62
2023/05/25 09:25:49;;;;;;;7.90;4.70;;;;;;;17.96;71.03;101365.23;105572;1254;81594;-63
2023/05/25 09:28:19;;;;;;;10.60;4.50;;;;;;;17.92;70.98;101371.11;105509;1258;72779;-61
2023/05/25 09:30:50;;;;;;;9.40;4.60;;;;;;;17.89;70.74;101375.82;105021;1260;69228;-60
2023/05/25 09:33:19;;;;;;;8.70;4.50;;;;;;;17.86;70.33;101378.32;104997;1266;69296;-60
2023/05/25 09:35:48;;;;;;;9.60;4.70;;;;;;;17.82;70.23;101377.99;105051;1264;74453;-61
2023/05/25 09:38:16;;;;;;;10.10;4.60;;;;;;;17.87;70.34;101373.30;104815;1261;83521;-60
2023/05/25 09:40:45;;;;;;;9.80;4.90;;;;;;;17.92;70.25;101372.67;105006;1261;72759;-63
2023/05/25 09:43:15;;;;;;;12.50;5.70;;;;;;;18.03;70.17;101370.66;104929;1261;69275;-63
2023/05/25 09:46:04;;;;;;;9.80;4.70;;;;;;;18.12;69.94;101370.23;104854;1264;69285;-62
2023/05/25 09:48:33;;;;;;;8.70;4.70;;;;;;;18.20;69.89;101376.17;105046;1254;73037;-63
2023/05/25 09:51:01;;;;;;;12.20;4.30;;;;;;;18.22;69.48;101380.97;105525;1257;83209;-60
2023/05/25 09:53:30;;;;;;;8.60;4.20;;;;;;;18.20;69.37;101379.87;105558;1254;72330;-60
2023/05/25 09:56:00;;;;;;;6.40;3.90;;;;;;;18.20;69.44;101381.96;105485;1257;69083;-63
2023/05/25 09:58:30;;;;;;;8.60;4.50;;;;;;;18.19;69.10;101382.91;105522;1253;69123;-61
2023/05/25 10:00:59;;;;;;;8.00;4.40;;;;;;;18.12;68.62;101378.38;105482;1254;73014;-61
2023/05/25 10:03:28;;;;;;;9.30;5.00;;;;;;;18.13;68.50;101383.45;105571;1253;83468;-60
2023/05/25 10:05:56;;;;;;;10.00;4.70;;;;;;;18.16;68.32;101382.92;105531;1254;73872;-66
2023/05/25 10:08:26;;;;;;;7.90;3.60;;;;;;;18.19;68.29;101382.92;105515;1257;69192;-63
2023/05/25 10:10:56;;;;;;;7.30;4.10;;;;;;;18.25;68.32;101382.44;105420;1255;69097;-66
2023/05/25 10:13:26;;;;;;;7.40;3.90;;;;;;;18.33;68.21;101380.79;105476;1257;73146;-64
2023/05/25 10:15:54;;;;;;;;;;;;;;;18.49;67.87;101379.20;105559;1254;83319;-62
2023/05/25 10:18:25;;;;;;;7.70;4.00;;;;;;;18.62;67.69;101380.60;105356;1254;73798;-64
2023/05/25 10:21:01;;;;;;;9.00;4.30;;;;;;;18.79;67.66;101379.87;105542;1257;69173;-63
2023/05/25 10:23:36;;;;;;;8.00;4.30;;;;;;;18.93;67.15;101383.84;105558;1254;69195;-62
2023/05/25 10:26:05;;;;;;;9.20;4.40;;;;;;;19.03;67.01;101376.56;105551;1254;74206;-62
2023/05/25 10:28:37;;;;;;;12.60;5.20;;;;;;;19.15;67.02;101378.70;105551;1254;82456;-61
2023/05/25 10:31:06;;;;;;;11.70;4.50;;;;;;;19.25;66.64;101377.29;105542;1257;73902;-63
2023/05/25 10:33:34;;;;;;;8.50;5.00;;;;;;;19.29;66.41;101378.96;105509;1254;69198;-63
2023/05/25 10:36:03;;;;;;;8.60;5.30;;;;;;;19.38;66.18;101377.20;105547;1254;69219;-63
2023/05/25 10:38:39;;;;;;;8.90;5.70;;;;;;;19.49;65.69;101374.98;105524;1254;73154;-65
2023/05/25 10:41:08;;;;;;;8.40;5.50;;;;;;;19.61;65.51;101372.84;105556;1254;84016;-62
2023/05/25 10:43:38;;;;;;;7.30;3.80;;;;;;;19.79;65.42;101372.69;105526;1254;72384;-65
2023/05/25 10:46:07;;;;;;;7.50;4.30;;;;;;;19.91;64.84;101370.20;105310;1254;69185;-65
2023/05/25 10:48:44;;;;;;;10.90;5.60;;;;;;;19.99;64.51;101368.13;105542;1257;69196;-64
2023/05/25 10:51:13;;;;;;;10.90;5.30;;;;;;;20.11;64.27;101368.96;105527;1254;74185;-61
2023/05/25 10:53:45;;;;;;;9.50;5.30;;;;;;;20.22;64.20;101368.83;105611;1257;83541;-61
2023/05/25 10:56:14;;;;;;;8.70;5.20;;;;;;;20.33;63.90;101366.75;105493;1253;72814;-62
2023/05/25 10:58:46;;;;;;;8.60;5.40;;;;;;;20.42;63.71;101367.73;105474;1254;69224;-62
2023/05/25 11:01:14;;;;;;;8.00;4.40;;;;;;;20.57;63.37;101368.08;105525;1258;69077;-62
2023/05/25 11:03:43;;;;;;;8.80;4.60;;;;;;;20.67;62.63;101367.03;105553;1254;73060;-63
2023/05/25 11:06:14;;;;;;;7.30;3.80;;;;;;;20.74;62.44;101366.29;105580;1257;83637;-63
2023/05/25 11:08:59;;;;;;;8.90;4.20;;;;;;;20.93;62.54;101363.97;105522;1254;72476;-61
2023/05/25 11:11:44;;;;;;;8.40;4.50;;;;;;;21.14;62.07;101363.13;105497;1254;69171;-62
2023/05/25 11:14:41;;;;;;;6.80;3.80;;;;;;;21.23;61.32;101356.66;105483;1253;69087;-61
2023/05/25 11:17:13;;;;;;;10.10;4.00;;;;;;;21.27;60.94;101353.94;105523;1254;74297;-63
2023/05/25 11:19:45;;;;;;;10.10;3.50;;;;;;;21.28;60.71;101352.76;105529;1257;82349;-62
2023/05/25 11:22:39;;;;;;;16.30;8.10;;;;;;;21.32;60.70;101348.27;105476;1252;73882;-65
2023/05/25 11:25:39;;;;;;;10.40;4.30;;;;;;;21.34;60.64;101349.38;105566;1257;69146;-63
2023/05/25 11:28:10;;;;;;;7.80;3.40;;;;;;;21.34;60.17;101344.38;105558;1254;69192;-64
2023/05/25 11:30:40;;;;;;;5.90;3.70;;;;;;;21.31;60.10;101343.69;105513;1257;73078;-65
2023/05/25 11:33:09;;;;;;;8.50;3.70;;;;;;;21.24;59.76;101342.39;105538;1257;83674;-64
2023/05/25 11:35:38;;;;;;;10.80;4.30;;;;;;;21.13;59.78;101349.69;105483;1253;73833;-63
2023/05/25 11:38:07;;;;;;;8.70;3.60;;;;;;;21.09;59.70;101352.11;105554;1253;69109;-61
2023/05/25 11:40:35;;;;;;;5.80;3.60;;;;;;;21.08;59.73;101349.48;105556;1254;69202;-62
2023/05/25 11:43:07;;;;;;;6.80;3.80;;;;;;;21.18;59.60;101344.40;105549;1257;73260;-64
2023/05/25 11:45:36;;;;;;;15.20;6.80;;;;;;;21.26;59.47;101341.38;105391;1260;83447;-63
2023/05/25 11:48:05;;;;;;;6.60;3.80;;;;;;;21.35;59.54;101337.36;105551;1257;72550;-62
2023/05/25 11:50:34;;;;;;;7.30;3.20;;;;;;;21.38;59.56;101340.02;105555;1254;69221;-61
2023/05/25 11:53:06;;;;;;;9.80;3.60;;;;;;;21.58;59.90;101340.49;105466;1253;69167;-60
2023/05/25 11:55:35;;;;;;;6.00;3.80;;;;;;;22.16;59.65;101330.90;105519;1254;74202;-63
2023/05/25 11:58:03;;;;;;;7.00;3.50;;;;;;;22.77;59.59;101329.02;105550;1254;82707;-60